This is the latest recevied weather packets stored in our database for station/object YREN. If no packets are shown the sender has not sent any weather packets the latest 10 day(s).
| Time | Temp. | Humidity | Pressure | Rain* | Wind** | Luminosity | Snow |
|---|---|---|---|---|---|---|---|
| 1788192304 | 8.33° C | 82% | 1023.2 hPa | 0 mm | - | - | - |
| 1788190504 | 7.78° C | 85% | 1023.7 hPa | 0 mm | - | - | - |
| 1788189603 | 8.33° C | 85% | 1024 hPa | 0 mm | - | - | - |
| 1788188703 | 8.33° C | 85% | 1024 hPa | 0 mm | - | - | - |
| 1788186904 | 9.44° C | 82% | 1024.2 hPa | 0 mm | - | - | - |
| 1788186003 | 10° C | 79% | 1024.6 hPa | 0 mm | - | - | - |
| 1788185104 | 10° C | 79% | 1024.6 hPa | 0 mm | - | - | - |
| 1788182404 | 9.44° C | 78% | 1025.8 hPa | 0 mm | - | - | - |
| 1788181504 | 9.44° C | 78% | 1025.8 hPa | 0 mm | - | - | - |
| 1788180603 | 9.44° C | 78% | 1025.8 hPa | 0 mm | - | - | - |
| 1788179703 | 9.44° C | 78% | 1025.8 hPa | 0 mm | - | - | - |
| 1788178804 | 11.67° C | 70% | 1025.8 hPa | 0 mm | - | - | - |
| 1788177903 | 11.67° C | 70% | 1025.8 hPa | 0 mm | - | - | - |
| 1788177003 | 11.67° C | 70% | 1025.8 hPa | 0 mm | - | - | - |
| 1788176103 | 11.67° C | 70% | 1025.8 hPa | 0 mm | - | - | - |
| 1788175204 | 12.22° C | 68% | 1025.9 hPa | 0 mm | - | - | - |
| 1788174304 | 12.22° C | 68% | 1025.9 hPa | 0 mm | - | - | - |
| 1788172504 | 12.22° C | 70% | 1025.9 hPa | 0 mm | - | - | - |
| 1788171604 | 12.78° C | 68% | 1026 hPa | 0 mm | - | - | - |
| 1788170704 | 12.78° C | 68% | 1026 hPa | 0 mm | - | - | - |
| 1788169804 | 13.33° C | 62% | 1025.8 hPa | 0 mm | - | - | - |
| 1788168904 | 13.33° C | 62% | 1025.8 hPa | 0 mm | - | - | - |
| 1788168003 | 15.56° C | 53% | 1025.8 hPa | 0 mm | - | - | - |
| 1788167104 | 15.56° C | 53% | 1025.8 hPa | 0 mm | - | - | - |
| 1788166204 | 16.67° C | 50% | 1025.9 hPa | 0 mm | - | - | - |
* Rain latest hour (hover to see other rain measurements)
** Current wind speed in m/s (hover to see current wind gust speed)